Time;durP1;ratioP1;P1;durP2;ratioP2;P2;SDS_P1;SDS_P2;PMS_P1;PMS_P2;Temp;Humidity;BMP_temperature;BMP_pressure;BME280_temperature;BME280_humidity;BME280_pressure;Samples;Min_cycle;Max_cycle;Signal;HPM_P1;HPM_P2
2022/05/10 00:04:01;;;;;;;13.55;6.28;;;20.70;67.70;;;;;;10945150;32;20046;-70
2022/05/10 00:10:08;;;;;;;11.75;5.47;;;20.50;67.90;;;;;;10944680;32;20023;-70
2022/05/10 00:16:14;;;;;;;7.65;5.10;;;20.50;68.10;;;;;;10944478;32;20061;-70
2022/05/10 00:22:17;;;;;;;8.00;5.78;;;20.50;68.80;;;;;;10931118;32;20395;-70
2022/05/10 00:28:19;;;;;;;8.10;5.93;;;20.50;69.00;;;;;;10944142;32;20071;-70
2022/05/10 00:34:21;;;;;;;8.73;5.60;;;20.40;68.90;;;;;;10944111;32;20289;-70
2022/05/10 00:40:32;;;;;;;11.15;6.43;;;20.30;68.90;;;;;;10943857;32;20045;-70
2022/05/10 00:46:45;;;;;;;10.10;6.80;;;20.30;68.90;;;;;;10943571;32;20023;-70
2022/05/10 00:53:03;;;;;;;11.00;7.72;;;20.30;69.10;;;;;;10943436;32;20089;-70
2022/05/10 00:59:21;;;;;;;14.38;6.07;;;20.10;69.20;;;;;;10924731;32;20022;-70
2022/05/10 01:05:41;;;;;;;9.43;6.70;;;20.00;69.40;;;;;;10929901;32;20018;-76
2022/05/10 01:11:53;;;;;;;8.00;6.70;;;20.00;69.60;;;;;;10943167;32;20026;-76
2022/05/10 01:17:57;;;;;;;8.80;6.90;;;20.10;69.50;;;;;;10943114;32;20019;-75
2022/05/10 01:24:31;;;;;;;9.73;7.10;;;20.00;69.60;;;;;;10942796;32;20015;-76
2022/05/10 01:30:33;;;;;;;7.70;5.93;;;20.00;69.50;;;;;;10939412;32;20031;-75
2022/05/10 01:36:48;;;;;;;8.35;6.07;;;20.00;69.70;;;;;;10942526;32;20018;-76
2022/05/10 01:43:03;;;;;;;9.02;7.35;;;19.90;70.10;;;;;;10942461;32;20015;-76
2022/05/10 01:49:29;;;;;;;11.02;7.10;;;19.90;70.30;;;;;;10927756;32;20023;-75
2022/05/10 01:55:40;;;;;;;7.97;7.00;;;19.80;70.40;;;;;;10941080;32;20027;-75
2022/05/10 02:01:42;;;;;;;12.23;7.07;;;19.70;70.60;;;;;;10942198;32;20044;-75
2022/05/10 02:07:46;;;;;;;11.75;8.43;;;19.60;70.80;;;;;;10941986;32;20019;-75
2022/05/10 02:14:00;;;;;;;10.77;7.45;;;19.50;70.90;;;;;;10947893;32;20011;-76
2022/05/10 02:20:38;;;;;;;10.70;7.12;;;19.60;70.90;;;;;;10949248;32;20030;-75
2022/05/10 02:26:48;;;;;;;10.70;5.43;;;19.50;70.90;;;;;;10830727;32;20411;-75
2022/05/10 02:33:08;;;;;;;8.00;6.93;;;19.40;71.20;;;;;;10828757;32;20036;-75
2022/05/10 02:39:10;;;;;;;8.85;6.80;;;19.30;71.30;;;;;;10832226;32;20008;-76
2022/05/10 02:45:12;;;;;;;7.85;6.18;;;19.30;71.40;;;;;;10833087;32;20028;-75
2022/05/10 02:51:15;;;;;;;9.25;7.60;;;19.20;71.60;;;;;;10833004;32;20054;-75
2022/05/10 02:57:17;;;;;;;12.23;8.85;;;19.30;71.50;;;;;;10832657;32;20020;-76
2022/05/10 03:03:25;;;;;;;9.68;7.90;;;19.30;71.40;;;;;;10922014;32;20015;-75
2022/05/10 03:09:27;;;;;;;10.63;7.00;;;19.30;71.50;;;;;;10947496;32;20399;-75
2022/05/10 03:15:36;;;;;;;10.23;7.85;;;19.20;71.70;;;;;;10946360;32;20419;-75
2022/05/10 03:21:40;;;;;;;9.02;7.62;;;19.10;71.80;;;;;;10946343;32;20464;-75
2022/05/10 03:27:42;;;;;;;7.70;5.85;;;19.00;72.00;;;;;;10946788;32;20019;-75
2022/05/10 03:33:44;;;;;;;10.13;6.47;;;18.80;72.20;;;;;;10946719;32;20053;-76
2022/05/10 03:39:46;;;;;;;7.25;5.93;;;18.80;72.20;;;;;;10946358;32;20015;-76
2022/05/10 03:45:48;;;;;;;10.23;6.47;;;18.70;72.30;;;;;;10942053;32;20031;-76
2022/05/10 03:51:50;;;;;;;9.95;6.85;;;18.70;72.30;;;;;;10946014;32;20322;-76
2022/05/10 03:57:53;;;;;;;10.68;6.45;;;18.60;72.50;;;;;;10945883;32;20426;-76
2022/05/10 04:03:55;;;;;;;9.32;7.62;;;18.50;72.80;;;;;;10943511;32;20037;-75
2022/05/10 04:10:05;;;;;;;7.17;5.30;;;18.70;72.50;;;;;;10945395;32;20031;-76
2022/05/10 04:16:19;;;;;;;11.55;8.27;;;18.70;72.40;;;;;;10945026;32;20058;-74
2022/05/10 04:22:27;;;;;;;10.18;8.70;;;18.70;72.30;;;;;;10944923;32;20019;-75
2022/05/10 04:28:30;;;;;;;8.25;5.78;;;18.80;72.20;;;;;;10944371;32;20038;-75
2022/05/10 04:34:32;;;;;;;7.45;5.75;;;18.80;72.20;;;;;;10930662;32;20395;-75
2022/05/10 04:46:56;;;;;;;8.73;6.85;;;18.70;72.60;;;;;;10944203;32;20031;-74
2022/05/10 04:52:58;;;;;;;10.18;6.57;;;18.70;72.70;;;;;;10930223;32;20065;-75
2022/05/10 04:59:00;;;;;;;8.15;5.80;;;18.70;72.70;;;;;;10943480;32;20203;-75
2022/05/10 05:05:03;;;;;;;6.85;5.57;;;18.70;72.80;;;;;;10942608;32;20049;-74
2022/05/10 05:11:06;;;;;;;7.68;6.00;;;18.70;73.10;;;;;;10929466;32;20403;-75
2022/05/10 05:17:08;;;;;;;11.32;6.05;;;18.80;73.00;;;;;;10942941;32;20046;-75
2022/05/10 05:23:13;;;;;;;8.30;6.40;;;18.80;73.00;;;;;;10942630;32;20019;-75
2022/05/10 05:29:15;;;;;;;10.98;5.85;;;18.90;73.10;;;;;;10942298;32;20341;-75
2022/05/10 05:35:18;;;;;;;7.15;4.60;;;18.90;73.00;;;;;;10942342;32;20077;-76
2022/05/10 05:41:20;;;;;;;7.22;5.15;;;19.00;73.10;;;;;;10942220;32;20037;-75
2022/05/10 05:47:22;;;;;;;7.05;5.20;;;19.00;72.90;;;;;;10949622;32;20061;-76
2022/05/10 05:53:27;;;;;;;6.55;4.60;;;19.20;72.50;;;;;;10954434;32;20339;-75
2022/05/10 05:59:30;;;;;;;8.63;6.18;;;19.30;72.20;;;;;;10953903;32;20027;-75
2022/05/10 06:05:32;;;;;;;6.43;4.65;;;19.50;71.90;;;;;;10940385;32;20037;-75
2022/05/10 06:11:34;;;;;;;9.68;7.70;;;19.60;71.70;;;;;;10957652;27;20026;-74
2022/05/10 06:17:38;;;;;;;7.45;5.65;;;19.60;71.20;;;;;;10952106;32;20023;-75
2022/05/10 06:23:40;;;;;;;7.82;5.30;;;19.70;71.10;;;;;;10953694;32;20437;-75
2022/05/10 06:29:43;;;;;;;10.00;6.55;;;19.90;70.50;;;;;;10953603;32;20031;-75
2022/05/10 06:35:45;;;;;;;6.20;4.87;;;20.00;70.40;;;;;;10927577;32;20381;-76
2022/05/10 06:41:47;;;;;;;9.43;7.12;;;20.20;69.90;;;;;;10945526;32;20042;-74
2022/05/10 06:47:49;;;;;;;9.02;7.12;;;20.30;69.50;;;;;;10953406;32;20053;-76
2022/05/10 06:53:53;;;;;;;10.18;5.95;;;20.40;69.40;;;;;;10916427;32;20047;-74
2022/05/10 06:59:55;;;;;;;8.13;6.43;;;20.50;69.10;;;;;;10910316;32;20057;-75
2022/05/10 07:06:02;;;;;;;9.43;6.45;;;20.70;68.80;;;;;;10945710;32;20332;-74
2022/05/10 07:12:04;;;;;;;9.15;6.72;;;20.70;68.70;;;;;;10947363;32;20034;-75
2022/05/10 07:18:07;;;;;;;8.00;4.68;;;20.80;68.40;;;;;;10947213;32;20403;-75
2022/05/10 07:24:08;;;;;;;8.32;5.62;;;21.00;68.00;;;;;;10933781;32;20070;-74
2022/05/10 07:30:14;;;;;;;7.93;5.60;;;21.20;67.90;;;;;;10906303;32;20027;-75
2022/05/10 07:36:25;;;;;;;12.30;5.68;;;21.30;67.40;;;;;;10925833;32;20350;-74
2022/05/10 07:42:28;;;;;;;8.00;3.90;;;21.50;66.90;;;;;;10915972;32;20062;-75
2022/05/10 07:48:30;;;;;;;10.15;5.22;;;21.60;66.50;;;;;;10908497;32;20015;-75
2022/05/10 07:54:34;;;;;;;6.85;5.05;;;21.80;66.20;;;;;;10908625;32;20098;-74
2022/05/10 08:00:39;;;;;;;10.38;5.28;;;21.80;65.80;;;;;;10907206;32;20027;-74
2022/05/10 08:06:41;;;;;;;8.95;5.03;;;22.00;65.50;;;;;;10907687;32;20046;-74
2022/05/10 08:12:43;;;;;;;7.62;4.78;;;22.10;65.20;;;;;;10907006;32;20024;-74
2022/05/10 08:18:49;;;;;;;9.90;5.47;;;22.20;64.80;;;;;;10907922;32;20384;-73
2022/05/10 08:24:51;;;;;;;9.48;5.05;;;22.30;64.30;;;;;;10906422;32;20023;-75
2022/05/10 08:30:53;;;;;;;8.90;5.57;;;22.30;63.70;;;;;;10907070;32;20057;-76
2022/05/10 08:37:07;;;;;;;9.98;4.85;;;22.40;63.40;;;;;;10927471;32;20030;-77
2022/05/10 08:43:17;;;;;;;9.32;5.30;;;22.50;62.90;;;;;;10943525;32;20058;-77
2022/05/10 08:49:39;;;;;;;8.95;5.78;;;22.70;62.70;;;;;;10903560;32;20351;-76
2022/05/10 08:55:47;;;;;;;11.07;4.93;;;22.80;62.00;;;;;;10905652;32;20434;-77
2022/05/10 09:02:04;;;;;;;8.15;5.85;;;22.80;62.00;;;;;;10905288;32;20019;-76
2022/05/10 09:08:18;;;;;;;6.65;4.53;;;22.90;61.40;;;;;;10905591;32;20050;-76
2022/05/10 09:14:28;;;;;;;8.23;5.50;;;23.10;60.80;;;;;;10889996;32;20413;-75
2022/05/10 09:20:31;;;;;;;8.02;5.47;;;23.10;60.40;;;;;;10918809;32;20437;-76
2022/05/10 09:26:42;;;;;;;7.50;4.82;;;23.30;60.10;;;;;;10928819;32;20027;-77
2022/05/10 09:39:29;;;;;;;9.02;5.97;;;23.60;60.10;;;;;;10938409;32;20380;-75
2022/05/10 09:45:31;;;;;;;11.60;6.43;;;23.70;59.70;;;;;;10940131;32;20062;-77
2022/05/10 09:51:37;;;;;;;7.70;4.90;;;23.90;59.30;;;;;;10941885;32;20026;-77
2022/05/10 09:57:40;;;;;;;15.18;5.93;;;24.00;58.80;;;;;;10928385;32;20046;-72
2022/05/10 10:03:45;;;;;;;16.42;5.57;;;24.20;58.80;;;;;;10941893;32;20020;-74
2022/05/10 10:10:23;;;;;;;7.78;4.72;;;24.30;57.90;;;;;;10928363;32;20024;-75
2022/05/10 10:16:31;;;;;;;9.43;5.67;;;24.40;57.30;;;;;;10863675;32;20046;-73
2022/05/10 10:22:40;;;;;;;15.88;6.43;;;24.60;57.00;;;;;;10864302;32;20407;-75
2022/05/10 10:28:58;;;;;;;6.20;4.43;;;24.80;55.20;;;;;;10863012;32;20035;-75
2022/05/10 10:35:06;;;;;;;5.28;3.65;;;25.00;54.90;;;;;;10868599;32;20089;-76
2022/05/10 10:41:22;;;;;;;17.52;6.10;;;25.10;54.60;;;;;;10869695;32;20020;-73
2022/05/10 10:47:36;;;;;;;7.90;4.50;;;25.30;56.50;;;;;;10892662;32;20046;-75
2022/05/10 10:53:39;;;;;;;6.62;5.00;;;25.30;55.20;;;;;;10945848;32;20027;-74
2022/05/10 10:59:52;;;;;;;7.22;4.70;;;25.40;54.30;;;;;;10948024;32;20015;-77
2022/05/10 11:05:54;;;;;;;7.93;5.97;;;25.50;54.10;;;;;;10947393;32;20019;-76
2022/05/10 11:12:08;;;;;;;12.18;6.60;;;25.80;53.20;;;;;;10943729;32;20020;-75
2022/05/10 11:18:28;;;;;;;10.35;5.10;;;26.10;51.80;;;;;;10933762;32;20054;-72
2022/05/10 11:24:49;;;;;;;7.30;4.97;;;26.00;51.60;;;;;;10943189;32;20046;-75
2022/05/10 11:30:58;;;;;;;6.85;4.55;;;26.10;51.20;;;;;;10947097;32;20033;-75
2022/05/10 11:37:03;;;;;;;6.55;4.95;;;26.40;51.10;;;;;;10934289;32;20050;-74
2022/05/10 11:43:14;;;;;;;11.43;5.25;;;26.80;50.50;;;;;;10913880;32;20343;-74
2022/05/10 11:49:35;;;;;;;6.93;4.72;;;27.00;50.30;;;;;;10907880;32;20050;-75
2022/05/10 11:55:56;;;;;;;6.78;4.57;;;27.20;49.80;;;;;;10907849;32;20386;-70
2022/05/10 12:02:00;;;;;;;7.53;4.43;;;27.30;47.70;;;;;;10905246;32;20023;-69
2022/05/10 12:08:25;;;;;;;6.40;4.50;;;27.20;48.20;;;;;;10907178;32;20031;-69
2022/05/10 12:21:20;;;;;;;8.00;5.50;;;27.40;48.20;;;;;;10831632;32;20027;-69
2022/05/10 12:27:25;;;;;;;8.63;5.82;;;27.60;48.00;;;;;;10815444;32;20020;-70
2022/05/10 12:33:35;;;;;;;9.43;5.00;;;27.40;48.20;;;;;;10823688;33;20054;-70
2022/05/10 12:39:38;;;;;;;6.62;4.72;;;27.40;48.80;;;;;;10824578;33;20020;-71
2022/05/10 12:46:07;;;;;;;9.30;5.62;;;27.50;48.50;;;;;;10824774;32;20067;-71
2022/05/10 12:52:39;;;;;;;9.60;6.68;;;27.50;47.80;;;;;;10892033;32;20339;-70
2022/05/10 12:59:05;;;;;;;10.52;4.95;;;27.20;47.40;;;;;;10943326;32;20023;-70
2022/05/10 13:05:14;;;;;;;8.85;5.20;;;27.20;47.70;;;;;;10942964;32;20300;-69
2022/05/10 13:11:18;;;;;;;16.62;6.28;;;27.30;47.20;;;;;;10942863;32;20073;-70
2022/05/10 13:17:24;;;;;;;8.52;4.55;;;27.30;47.00;;;;;;10933400;32;20100;-69
2022/05/10 13:23:28;;;;;;;5.35;3.90;;;27.30;47.20;;;;;;10922534;32;20026;-69
2022/05/10 13:29:48;;;;;;;6.78;4.65;;;27.50;46.90;;;;;;10927569;32;20054;-70
2022/05/10 13:35:55;;;;;;;7.87;5.28;;;27.50;46.40;;;;;;10928600;32;20476;-71
2022/05/10 13:42:02;;;;;;;8.67;5.63;;;27.50;46.40;;;;;;10941414;32;20023;-69
2022/05/10 13:48:14;;;;;;;10.75;6.55;;;27.40;46.60;;;;;;10941630;32;20053;-70
2022/05/10 13:54:29;;;;;;;12.57;6.25;;;27.40;46.60;;;;;;10927182;32;20035;-69
2022/05/10 14:00:43;;;;;;;13.18;5.50;;;27.40;46.20;;;;;;10918009;32;20031;-69
2022/05/10 14:07:01;;;;;;;8.75;4.57;;;27.60;46.50;;;;;;10925467;32;20067;-75
2022/05/10 14:13:08;;;;;;;15.35;5.70;;;27.50;46.00;;;;;;10936395;27;20347;-73
2022/05/10 14:19:32;;;;;;;7.80;5.28;;;27.50;46.10;;;;;;10949646;32;20077;-75
2022/05/10 14:25:36;;;;;;;9.60;4.82;;;27.70;46.10;;;;;;10949066;32;20046;-75
2022/05/10 14:31:39;;;;;;;13.77;5.15;;;27.80;46.30;;;;;;10948404;32;20026;-75
2022/05/10 14:37:49;;;;;;;6.40;4.80;;;27.90;46.20;;;;;;10947735;32;20315;-76
2022/05/10 14:44:18;;;;;;;13.45;6.25;;;27.80;46.00;;;;;;10947810;32;20073;-76
2022/05/10 14:50:51;;;;;;;12.15;4.43;;;27.80;45.40;;;;;;10947845;32;20456;-73
2022/05/10 14:57:00;;;;;;;9.00;5.22;;;27.60;45.50;;;;;;10820327;32;20365;-73
2022/05/10 15:03:21;;;;;;;7.62;4.87;;;27.60;45.60;;;;;;10831829;32;20031;-76
2022/05/10 15:09:23;;;;;;;8.52;4.07;;;27.60;44.80;;;;;;10830775;32;20031;-76
2022/05/10 15:15:26;;;;;;;11.25;4.93;;;27.60;44.50;;;;;;10828034;32;20028;-73
2022/05/10 15:21:31;;;;;;;7.65;4.65;;;27.60;44.30;;;;;;10823777;33;20020;-74
2022/05/10 15:27:33;;;;;;;10.27;4.07;;;27.70;43.70;;;;;;10831405;32;20024;-70
2022/05/10 15:33:35;;;;;;;11.25;3.97;;;27.60;43.00;;;;;;10893669;32;20061;-70
2022/05/10 15:39:38;;;;;;;14.82;5.05;;;27.60;41.70;;;;;;10908471;32;20400;-71
2022/05/10 15:45:41;;;;;;;12.27;4.90;;;27.60;42.30;;;;;;10904575;32;20370;-71
2022/05/10 15:51:44;;;;;;;7.03;3.40;;;27.70;42.00;;;;;;10907773;32;20050;-70
2022/05/10 15:57:46;;;;;;;12.13;4.47;;;27.80;41.30;;;;;;10907695;32;20016;-70
2022/05/10 16:03:50;;;;;;;12.77;4.80;;;27.90;41.10;;;;;;10894389;32;20027;-71
2022/05/10 16:09:52;;;;;;;10.02;4.07;;;27.90;40.50;;;;;;10907367;32;20012;-71
2022/05/10 16:15:56;;;;;;;8.18;5.70;;;27.90;39.70;;;;;;10916334;32;20035;-71
2022/05/10 16:21:58;;;;;;;10.65;6.55;;;27.80;39.70;;;;;;10930914;32;20367;-71
2022/05/10 16:34:21;;;;;;;8.93;4.37;;;27.80;39.30;;;;;;10943845;32;20023;-70
2022/05/10 16:40:24;;;;;;;12.52;6.32;;;27.80;39.40;;;;;;10910815;32;20065;-71
2022/05/10 16:46:28;;;;;;;5.70;3.47;;;27.80;39.20;;;;;;10891528;32;20363;-71
2022/05/10 16:52:31;;;;;;;9.32;3.72;;;27.70;39.40;;;;;;10892084;32;20067;-70
2022/05/10 16:58:33;;;;;;;9.63;4.60;;;27.60;39.60;;;;;;10905366;32;20020;-69
2022/05/10 17:04:39;;;;;;;8.88;4.35;;;27.60;40.10;;;;;;10905440;32;20085;-70
2022/05/10 17:10:42;;;;;;;10.57;4.07;;;27.60;40.20;;;;;;10900936;32;20023;-69
2022/05/10 17:16:46;;;;;;;6.53;3.90;;;27.70;40.40;;;;;;10497598;32;12023595;-70
2022/05/10 17:22:50;;;;;;;8.35;3.53;;;27.80;40.20;;;;;;10864118;32;20016;-70
2022/05/10 17:29:17;;;;;;;10.30;3.58;;;28.10;39.90;;;;;;10864148;32;20050;-70
2022/05/10 17:35:41;;;;;;;8.27;2.97;;;28.50;39.40;;;;;;10855493;32;20062;-71
2022/05/10 17:41:43;;;;;;;10.75;3.33;;;29.30;38.70;;;;;;10897576;32;20319;-71
2022/05/10 17:47:46;;;;;;;4.53;3.00;;;29.90;38.20;;;;;;10903942;32;20032;-71
2022/05/10 17:53:49;;;;;;;4.47;2.67;;;30.20;38.40;;;;;;10904032;32;20415;-72
2022/05/10 17:59:52;;;;;;;6.20;2.90;;;29.60;39.20;;;;;;10899659;32;20023;-72
2022/05/10 18:05:54;;;;;;;7.25;3.62;;;28.90;40.50;;;;;;10903411;32;20023;-72
2022/05/10 18:11:57;;;;;;;4.97;2.87;;;28.20;41.70;;;;;;10903321;32;20291;-72
2022/05/10 18:17:59;;;;;;;4.25;2.20;;;27.50;42.90;;;;;;10903244;32;20336;-72
2022/05/10 18:24:02;;;;;;;10.48;3.12;;;27.00;43.90;;;;;;10899308;32;20050;-72
2022/05/10 18:30:07;;;;;;;7.68;3.30;;;26.70;44.60;;;;;;10903450;32;20442;-72
2022/05/10 18:36:11;;;;;;;4.50;2.10;;;26.30;45.20;;;;;;10899199;32;20015;-72
2022/05/10 18:42:14;;;;;;;5.07;2.53;;;26.10;45.70;;;;;;10914139;32;20031;-72
2022/05/10 18:48:16;;;;;;;3.85;2.45;;;25.80;46.20;;;;;;10919863;32;20054;-72
2022/05/10 18:54:18;;;;;;;7.32;2.72;;;25.70;46.80;;;;;;10906385;32;20031;-72
2022/05/10 19:00:26;;;;;;;4.53;2.87;;;25.50;47.30;;;;;;10908750;32;20081;-72
2022/05/10 19:06:29;;;;;;;14.20;2.70;;;25.30;47.70;;;;;;10907660;32;20031;-72
2022/05/10 19:12:31;;;;;;;4.90;2.17;;;25.20;48.10;;;;;;10908710;32;20432;-72
2022/05/10 19:18:34;;;;;;;6.45;2.78;;;25.10;48.30;;;;;;10909064;32;20388;-72
2022/05/10 19:24:36;;;;;;;6.18;2.28;;;25.00;48.60;;;;;;10908962;32;20023;-72
2022/05/10 19:30:38;;;;;;;5.03;2.42;;;24.90;49.00;;;;;;10908835;32;20355;-72
2022/05/10 19:36:42;;;;;;;4.75;2.28;;;24.80;49.30;;;;;;10908554;32;20051;-72
2022/05/10 19:42:44;;;;;;;4.60;3.17;;;24.70;50.00;;;;;;10905150;32;20387;-72
2022/05/10 19:48:46;;;;;;;8.43;3.08;;;24.50;50.60;;;;;;10911616;32;20023;-72
2022/05/10 19:54:48;;;;;;;5.28;2.60;;;24.50;51.10;;;;;;10941228;32;20022;-72
2022/05/10 20:00:50;;;;;;;9.57;3.75;;;24.40;51.60;;;;;;10945450;32;20443;-72
2022/05/10 20:06:53;;;;;;;6.03;3.28;;;24.30;52.00;;;;;;10944479;32;20041;-72
2022/05/10 20:12:56;;;;;;;7.80;3.72;;;24.30;52.60;;;;;;10944858;32;20054;-72
2022/05/10 20:18:59;;;;;;;3.90;2.87;;;24.20;53.00;;;;;;10931575;32;20015;-72
2022/05/10 20:25:01;;;;;;;10.27;3.83;;;24.20;53.60;;;;;;10944513;32;20059;-72
2022/05/10 20:31:03;;;;;;;5.37;3.58;;;24.00;54.40;;;;;;10944413;32;20023;-72
2022/05/10 20:37:06;;;;;;;6.85;4.30;;;23.80;55.30;;;;;;10944310;32;20020;-72
2022/05/10 20:43:12;;;;;;;5.37;3.10;;;23.80;56.10;;;;;;10944139;32;20015;-73
2022/05/10 20:49:14;;;;;;;10.68;4.47;;;23.70;56.70;;;;;;10930367;32;20027;-73
2022/05/10 20:55:19;;;;;;;5.32;4.20;;;23.60;57.40;;;;;;10943439;32;20093;-74
2022/05/10 21:01:21;;;;;;;5.43;3.97;;;23.60;57.80;;;;;;10943539;32;20015;-73
2022/05/10 21:13:46;;;;;;;5.43;4.00;;;23.60;58.10;;;;;;10943647;32;20057;-74
2022/05/10 21:20:08;;;;;;;5.57;3.53;;;23.50;58.00;;;;;;10942871;32;20053;-74
2022/05/10 21:33:16;;;;;;;5.25;3.78;;;23.30;58.10;;;;;;10938378;32;20034;-74
2022/05/10 21:39:18;;;;;;;;;;;23.30;58.20;;;;;;10939854;32;20053;-73
2022/05/10 21:45:20;;;;;;;6.35;3.42;;;23.30;58.50;;;;;;10928694;32;19941;-74
2022/05/10 21:51:23;;;;;;;6.93;4.65;;;23.30;58.70;;;;;;10928466;32;20339;-75
2022/05/10 21:57:25;;;;;;;11.70;5.35;;;23.20;58.80;;;;;;10941904;32;20023;-74
2022/05/10 22:03:27;;;;;;;5.22;3.70;;;23.10;59.00;;;;;;10941910;32;20315;-74
2022/05/10 22:09:29;;;;;;;6.53;4.57;;;23.00;59.20;;;;;;10941608;32;20023;-74
2022/05/10 22:15:32;;;;;;;5.10;3.58;;;23.00;59.60;;;;;;10944635;27;20100;-74
2022/05/10 22:21:34;;;;;;;7.35;5.10;;;23.00;59.80;;;;;;10941583;32;20296;-74
2022/05/10 22:27:36;;;;;;;8.13;4.47;;;23.00;60.10;;;;;;10943263;32;20018;-74
2022/05/10 22:33:38;;;;;;;8.02;4.45;;;22.90;60.20;;;;;;10948681;32;20014;-75
2022/05/10 22:39:40;;;;;;;7.60;5.30;;;22.80;60.50;;;;;;10948429;32;20022;-74
2022/05/10 22:45:42;;;;;;;6.70;4.43;;;22.80;60.60;;;;;;10948178;32;20041;-74
2022/05/10 22:51:44;;;;;;;6.82;4.32;;;22.80;60.90;;;;;;10944024;32;20027;-74
2022/05/10 22:57:47;;;;;;;5.57;3.65;;;22.70;61.20;;;;;;10932373;32;20391;-74
2022/05/10 23:03:49;;;;;;;5.72;3.53;;;22.60;61.30;;;;;;10947693;32;20047;-75
2022/05/10 23:09:51;;;;;;;8.02;4.72;;;22.40;61.60;;;;;;10947295;32;20311;-75
2022/05/10 23:15:53;;;;;;;6.68;4.80;;;22.30;61.80;;;;;;10947272;32;20019;-75
2022/05/10 23:21:55;;;;;;;9.48;4.85;;;22.30;62.00;;;;;;10946939;32;20023;-75
2022/05/10 23:28:01;;;;;;;7.10;4.40;;;22.20;62.30;;;;;;10946932;32;20062;-75
2022/05/10 23:34:04;;;;;;;8.98;6.28;;;22.20;62.80;;;;;;10946472;32;20023;-75
2022/05/10 23:40:08;;;;;;;8.25;5.47;;;22.10;63.20;;;;;;10945573;32;20338;-75
2022/05/10 23:46:10;;;;;;;8.75;6.25;;;22.10;63.50;;;;;;10946115;32;20019;-75
2022/05/10 23:52:12;;;;;;;8.82;5.40;;;22.10;64.00;;;;;;10945883;32;20339;-75
2022/05/10 23:58:17;;;;;;;9.45;6.05;;;22.00;64.00;;;;;;10945823;32;20065;-75
